sensor_id;sensor_type;location;lat;lon;timestamp;P1;durP1;ratioP1;P2;durP2;ratioP2
40955;SDS011;26687;48.254;11.454;2023-10-09T00:02:42;12.43;;;5.28;;
40955;SDS011;26687;48.254;11.454;2023-10-09T00:05:43;11.18;;;5.20;;
40955;SDS011;26687;48.254;11.454;2023-10-09T00:08:46;9.20;;;5.00;;
40955;SDS011;26687;48.254;11.454;2023-10-09T00:11:51;10.82;;;4.80;;
40955;SDS011;26687;48.254;11.454;2023-10-09T00:14:57;13.27;;;5.82;;
40955;SDS011;26687;48.254;11.454;2023-10-09T00:18:02;12.70;;;4.93;;
40955;SDS011;26687;48.254;11.454;2023-10-09T00:21:05;13.57;;;5.68;;
40955;SDS011;26687;48.254;11.454;2023-10-09T00:24:13;11.40;;;5.25;;
40955;SDS011;26687;48.254;11.454;2023-10-09T00:27:13;10.77;;;5.45;;
40955;SDS011;26687;48.254;11.454;2023-10-09T00:30:19;9.93;;;6.40;;
40955;SDS011;26687;48.254;11.454;2023-10-09T00:33:21;12.32;;;5.88;;
40955;SDS011;26687;48.254;11.454;2023-10-09T00:36:22;15.55;;;5.65;;
40955;SDS011;26687;48.254;11.454;2023-10-09T00:39:28;11.15;;;5.82;;
40955;SDS011;26687;48.254;11.454;2023-10-09T00:42:40;9.88;;;5.13;;
40955;SDS011;26687;48.254;11.454;2023-10-09T00:45:40;12.05;;;5.38;;
40955;SDS011;26687;48.254;11.454;2023-10-09T00:48:44;11.45;;;5.90;;
40955;SDS011;26687;48.254;11.454;2023-10-09T00:51:48;11.55;;;5.65;;
40955;SDS011;26687;48.254;11.454;2023-10-09T00:54:56;13.80;;;6.00;;
40955;SDS011;26687;48.254;11.454;2023-10-09T00:58:01;11.02;;;5.55;;
40955;SDS011;26687;48.254;11.454;2023-10-09T01:01:05;11.23;;;5.82;;
40955;SDS011;26687;48.254;11.454;2023-10-09T01:04:15;13.55;;;6.53;;
40955;SDS011;26687;48.254;11.454;2023-10-09T01:07:17;13.18;;;6.10;;
40955;SDS011;26687;48.254;11.454;2023-10-09T01:10:25;12.18;;;6.32;;
40955;SDS011;26687;48.254;11.454;2023-10-09T01:13:34;10.55;;;5.97;;
40955;SDS011;26687;48.254;11.454;2023-10-09T01:16:52;8.30;;;6.05;;
40955;SDS011;26687;48.254;11.454;2023-10-09T01:19:54;10.73;;;5.60;;
40955;SDS011;26687;48.254;11.454;2023-10-09T01:22:55;13.35;;;5.93;;
40955;SDS011;26687;48.254;11.454;2023-10-09T01:25:56;10.52;;;5.55;;
40955;SDS011;26687;48.254;11.454;2023-10-09T01:28:56;11.90;;;6.00;;
40955;SDS011;26687;48.254;11.454;2023-10-09T01:31:58;11.68;;;6.25;;
40955;SDS011;26687;48.254;11.454;2023-10-09T01:35:00;10.15;;;6.25;;
40955;SDS011;26687;48.254;11.454;2023-10-09T01:38:01;15.05;;;6.22;;
40955;SDS011;26687;48.254;11.454;2023-10-09T01:41:01;10.23;;;5.80;;
40955;SDS011;26687;48.254;11.454;2023-10-09T01:44:07;11.85;;;6.28;;
40955;SDS011;26687;48.254;11.454;2023-10-09T01:47:12;13.65;;;5.85;;
40955;SDS011;26687;48.254;11.454;2023-10-09T01:50:18;10.63;;;5.47;;
40955;SDS011;26687;48.254;11.454;2023-10-09T01:53:20;12.48;;;5.93;;
40955;SDS011;26687;48.254;11.454;2023-10-09T01:56:22;12.60;;;5.78;;
40955;SDS011;26687;48.254;11.454;2023-10-09T01:59:23;12.52;;;5.65;;
40955;SDS011;26687;48.254;11.454;2023-10-09T02:02:23;11.97;;;5.97;;
40955;SDS011;26687;48.254;11.454;2023-10-09T02:08:26;12.30;;;5.90;;
40955;SDS011;26687;48.254;11.454;2023-10-09T02:11:35;12.23;;;5.53;;
40955;SDS011;26687;48.254;11.454;2023-10-09T02:14:36;11.32;;;5.95;;
40955;SDS011;26687;48.254;11.454;2023-10-09T02:17:41;9.57;;;5.40;;
40955;SDS011;26687;48.254;11.454;2023-10-09T02:24:01;11.98;;;5.68;;
40955;SDS011;26687;48.254;11.454;2023-10-09T02:27:09;9.18;;;5.13;;
40955;SDS011;26687;48.254;11.454;2023-10-09T02:30:11;10.23;;;5.78;;
40955;SDS011;26687;48.254;11.454;2023-10-09T02:33:31;15.65;;;5.70;;
40955;SDS011;26687;48.254;11.454;2023-10-09T02:36:33;10.35;;;5.20;;
40955;SDS011;26687;48.254;11.454;2023-10-09T02:39:38;9.55;;;5.47;;
40955;SDS011;26687;48.254;11.454;2023-10-09T02:42:48;8.98;;;4.97;;
40955;SDS011;26687;48.254;11.454;2023-10-09T02:45:49;12.68;;;6.05;;
40955;SDS011;26687;48.254;11.454;2023-10-09T02:48:53;10.27;;;5.22;;
40955;SDS011;26687;48.254;11.454;2023-10-09T02:51:53;8.93;;;5.60;;
40955;SDS011;26687;48.254;11.454;2023-10-09T02:54:53;10.40;;;5.37;;
40955;SDS011;26687;48.254;11.454;2023-10-09T02:57:59;8.52;;;5.15;;
40955;SDS011;26687;48.254;11.454;2023-10-09T03:01:11;10.02;;;4.78;;
40955;SDS011;26687;48.254;11.454;2023-10-09T03:04:13;11.82;;;5.22;;
40955;SDS011;26687;48.254;11.454;2023-10-09T03:07:14;12.32;;;5.47;;
40955;SDS011;26687;48.254;11.454;2023-10-09T03:10:14;9.97;;;5.00;;
40955;SDS011;26687;48.254;11.454;2023-10-09T03:13:15;10.20;;;5.20;;
40955;SDS011;26687;48.254;11.454;2023-10-09T03:16:19;12.05;;;5.32;;
40955;SDS011;26687;48.254;11.454;2023-10-09T03:19:19;9.77;;;5.28;;
40955;SDS011;26687;48.254;11.454;2023-10-09T03:22:20;11.93;;;5.53;;
40955;SDS011;26687;48.254;11.454;2023-10-09T03:25:20;10.80;;;5.15;;
40955;SDS011;26687;48.254;11.454;2023-10-09T03:28:20;8.90;;;5.17;;
40955;SDS011;26687;48.254;11.454;2023-10-09T03:31:20;12.82;;;5.18;;
40955;SDS011;26687;48.254;11.454;2023-10-09T03:34:23;8.07;;;4.63;;
40955;SDS011;26687;48.254;11.454;2023-10-09T03:37:24;16.15;;;4.90;;
40955;SDS011;26687;48.254;11.454;2023-10-09T03:40:36;8.25;;;5.05;;
40955;SDS011;26687;48.254;11.454;2023-10-09T03:43:39;8.63;;;4.60;;
40955;SDS011;26687;48.254;11.454;2023-10-09T03:46:41;9.80;;;5.15;;
40955;SDS011;26687;48.254;11.454;2023-10-09T03:49:44;11.65;;;4.70;;
40955;SDS011;26687;48.254;11.454;2023-10-09T03:52:45;11.65;;;4.78;;
40955;SDS011;26687;48.254;11.454;2023-10-09T03:55:45;11.13;;;4.82;;
40955;SDS011;26687;48.254;11.454;2023-10-09T03:58:46;10.40;;;4.60;;
40955;SDS011;26687;48.254;11.454;2023-10-09T04:01:47;13.95;;;5.50;;
40955;SDS011;26687;48.254;11.454;2023-10-09T04:04:48;9.77;;;4.80;;
40955;SDS011;26687;48.254;11.454;2023-10-09T04:07:50;9.85;;;4.72;;
40955;SDS011;26687;48.254;11.454;2023-10-09T04:10:53;10.20;;;4.63;;
40955;SDS011;26687;48.254;11.454;2023-10-09T04:13:54;10.30;;;4.57;;
40955;SDS011;26687;48.254;11.454;2023-10-09T04:16:55;11.70;;;5.13;;
40955;SDS011;26687;48.254;11.454;2023-10-09T04:20:05;9.90;;;4.78;;
40955;SDS011;26687;48.254;11.454;2023-10-09T04:23:18;12.63;;;4.80;;
40955;SDS011;26687;48.254;11.454;2023-10-09T04:26:33;12.98;;;4.53;;
40955;SDS011;26687;48.254;11.454;2023-10-09T04:29:35;10.25;;;4.95;;
40955;SDS011;26687;48.254;11.454;2023-10-09T04:32:38;8.32;;;4.50;;
40955;SDS011;26687;48.254;11.454;2023-10-09T04:35:40;7.85;;;4.70;;
40955;SDS011;26687;48.254;11.454;2023-10-09T04:38:48;9.35;;;4.35;;
40955;SDS011;26687;48.254;11.454;2023-10-09T04:42:04;8.02;;;4.50;;
40955;SDS011;26687;48.254;11.454;2023-10-09T04:45:26;13.32;;;4.90;;
40955;SDS011;26687;48.254;11.454;2023-10-09T04:48:59;10.57;;;4.50;;
40955;SDS011;26687;48.254;11.454;2023-10-09T04:52:17;7.90;;;4.25;;
40955;SDS011;26687;48.254;11.454;2023-10-09T04:55:29;9.25;;;4.55;;
40955;SDS011;26687;48.254;11.454;2023-10-09T04:58:38;10.30;;;5.60;;
40955;SDS011;26687;48.254;11.454;2023-10-09T05:01:39;9.98;;;4.93;;
40955;SDS011;26687;48.254;11.454;2023-10-09T05:04:46;10.30;;;5.22;;
40955;SDS011;26687;48.254;11.454;2023-10-09T05:07:51;8.02;;;4.70;;
40955;SDS011;26687;48.254;11.454;2023-10-09T05:14:15;10.57;;;4.70;;
40955;SDS011;26687;48.254;11.454;2023-10-09T05:17:16;12.98;;;4.97;;
40955;SDS011;26687;48.254;11.454;2023-10-09T05:20:16;10.57;;;4.83;;
40955;SDS011;26687;48.254;11.454;2023-10-09T05:23:26;12.57;;;5.15;;
40955;SDS011;26687;48.254;11.454;2023-10-09T05:26:26;8.97;;;4.13;;
40955;SDS011;26687;48.254;11.454;2023-10-09T05:29:37;8.57;;;4.40;;
40955;SDS011;26687;48.254;11.454;2023-10-09T05:32:49;7.68;;;4.43;;
40955;SDS011;26687;48.254;11.454;2023-10-09T05:35:49;9.90;;;4.70;;
40955;SDS011;26687;48.254;11.454;2023-10-09T05:39:09;10.73;;;4.60;;
40955;SDS011;26687;48.254;11.454;2023-10-09T05:42:32;13.32;;;4.85;;
40955;SDS011;26687;48.254;11.454;2023-10-09T05:45:41;9.60;;;4.22;;
40955;SDS011;26687;48.254;11.454;2023-10-09T05:49:00;15.00;;;4.93;;
40955;SDS011;26687;48.254;11.454;2023-10-09T05:52:09;12.48;;;4.40;;
40955;SDS011;26687;48.254;11.454;2023-10-09T05:55:30;11.90;;;4.82;;
40955;SDS011;26687;48.254;11.454;2023-10-09T05:58:53;12.55;;;4.50;;
40955;SDS011;26687;48.254;11.454;2023-10-09T06:02:11;10.45;;;4.53;;
40955;SDS011;26687;48.254;11.454;2023-10-09T06:05:37;12.68;;;4.00;;
40955;SDS011;26687;48.254;11.454;2023-10-09T06:08:40;12.00;;;3.97;;
40955;SDS011;26687;48.254;11.454;2023-10-09T06:11:40;10.70;;;3.97;;
40955;SDS011;26687;48.254;11.454;2023-10-09T06:14:46;12.82;;;4.30;;
40955;SDS011;26687;48.254;11.454;2023-10-09T06:20:52;12.13;;;4.13;;
40955;SDS011;26687;48.254;11.454;2023-10-09T06:24:08;11.07;;;4.30;;
40955;SDS011;26687;48.254;11.454;2023-10-09T06:27:14;11.40;;;3.70;;
40955;SDS011;26687;48.254;11.454;2023-10-09T06:30:24;13.35;;;3.83;;
40955;SDS011;26687;48.254;11.454;2023-10-09T06:33:25;9.35;;;3.60;;
40955;SDS011;26687;48.254;11.454;2023-10-09T06:36:36;11.00;;;2.90;;
40955;SDS011;26687;48.254;11.454;2023-10-09T06:39:46;12.43;;;4.40;;
40955;SDS011;26687;48.254;11.454;2023-10-09T06:42:58;11.30;;;3.25;;
40955;SDS011;26687;48.254;11.454;2023-10-09T06:45:58;21.83;;;3.35;;
40955;SDS011;26687;48.254;11.454;2023-10-09T06:49:14;10.88;;;3.42;;
40955;SDS011;26687;48.254;11.454;2023-10-09T06:52:33;11.68;;;3.67;;
40955;SDS011;26687;48.254;11.454;2023-10-09T06:55:53;13.65;;;3.90;;
40955;SDS011;26687;48.254;11.454;2023-10-09T06:59:05;6.57;;;3.00;;
40955;SDS011;26687;48.254;11.454;2023-10-09T07:02:24;11.40;;;3.08;;
40955;SDS011;26687;48.254;11.454;2023-10-09T07:05:27;10.77;;;3.42;;
40955;SDS011;26687;48.254;11.454;2023-10-09T07:08:47;7.80;;;3.00;;
40955;SDS011;26687;48.254;11.454;2023-10-09T07:11:59;9.60;;;3.10;;
40955;SDS011;26687;48.254;11.454;2023-10-09T07:15:03;14.98;;;3.40;;
40955;SDS011;26687;48.254;11.454;2023-10-09T07:18:04;11.15;;;3.20;;
40955;SDS011;26687;48.254;11.454;2023-10-09T07:21:18;11.88;;;3.42;;
40955;SDS011;26687;48.254;11.454;2023-10-09T07:24:27;10.75;;;3.13;;
40955;SDS011;26687;48.254;11.454;2023-10-09T07:27:37;10.45;;;3.25;;
40955;SDS011;26687;48.254;11.454;2023-10-09T07:30:44;11.73;;;3.30;;
40955;SDS011;26687;48.254;11.454;2023-10-09T07:33:46;12.48;;;3.65;;
40955;SDS011;26687;48.254;11.454;2023-10-09T07:36:56;11.50;;;3.50;;
40955;SDS011;26687;48.254;11.454;2023-10-09T07:39:57;10.50;;;2.90;;
40955;SDS011;26687;48.254;11.454;2023-10-09T07:42:57;11.53;;;2.93;;
40955;SDS011;26687;48.254;11.454;2023-10-09T07:46:08;12.38;;;3.53;;
40955;SDS011;26687;48.254;11.454;2023-10-09T07:49:27;12.93;;;2.78;;
40955;SDS011;26687;48.254;11.454;2023-10-09T07:52:29;9.23;;;2.95;;
40955;SDS011;26687;48.254;11.454;2023-10-09T07:55:29;10.18;;;2.65;;
40955;SDS011;26687;48.254;11.454;2023-10-09T07:58:39;9.20;;;3.03;;
40955;SDS011;26687;48.254;11.454;2023-10-09T08:01:49;15.20;;;2.72;;
40955;SDS011;26687;48.254;11.454;2023-10-09T08:04:52;9.15;;;2.78;;
40955;SDS011;26687;48.254;11.454;2023-10-09T08:07:53;14.88;;;3.40;;
40955;SDS011;26687;48.254;11.454;2023-10-09T08:11:18;8.73;;;2.60;;
40955;SDS011;26687;48.254;11.454;2023-10-09T08:14:37;11.85;;;2.95;;
40955;SDS011;26687;48.254;11.454;2023-10-09T08:17:37;15.07;;;3.77;;
40955;SDS011;26687;48.254;11.454;2023-10-09T08:20:37;13.45;;;3.30;;
40955;SDS011;26687;48.254;11.454;2023-10-09T08:23:56;15.23;;;2.88;;
40955;SDS011;26687;48.254;11.454;2023-10-09T08:27:04;11.75;;;3.08;;
40955;SDS011;26687;48.254;11.454;2023-10-09T08:30:40;13.45;;;3.13;;
40955;SDS011;26687;48.254;11.454;2023-10-09T08:33:50;15.38;;;3.35;;
40955;SDS011;26687;48.254;11.454;2023-10-09T08:36:58;8.90;;;2.53;;
40955;SDS011;26687;48.254;11.454;2023-10-09T08:40:00;8.88;;;2.88;;
40955;SDS011;26687;48.254;11.454;2023-10-09T08:43:03;8.30;;;2.75;;
40955;SDS011;26687;48.254;11.454;2023-10-09T08:46:08;14.27;;;3.13;;
40955;SDS011;26687;48.254;11.454;2023-10-09T08:49:09;10.05;;;2.90;;
40955;SDS011;26687;48.254;11.454;2023-10-09T08:52:10;12.10;;;3.08;;
40955;SDS011;26687;48.254;11.454;2023-10-09T08:55:10;8.73;;;3.00;;
40955;SDS011;26687;48.254;11.454;2023-10-09T08:58:11;14.98;;;4.05;;
40955;SDS011;26687;48.254;11.454;2023-10-09T09:01:29;16.38;;;2.97;;
40955;SDS011;26687;48.254;11.454;2023-10-09T09:04:36;13.60;;;4.00;;
40955;SDS011;26687;48.254;11.454;2023-10-09T09:07:39;15.82;;;3.38;;
40955;SDS011;26687;48.254;11.454;2023-10-09T09:10:42;14.32;;;2.90;;
40955;SDS011;26687;48.254;11.454;2023-10-09T09:13:47;13.90;;;2.97;;
40955;SDS011;26687;48.254;11.454;2023-10-09T09:16:51;11.88;;;3.25;;
40955;SDS011;26687;48.254;11.454;2023-10-09T09:19:52;12.02;;;2.80;;
40955;SDS011;26687;48.254;11.454;2023-10-09T09:22:52;11.40;;;2.80;;
40955;SDS011;26687;48.254;11.454;2023-10-09T09:25:56;12.88;;;3.20;;
40955;SDS011;26687;48.254;11.454;2023-10-09T09:29:00;10.75;;;2.97;;
40955;SDS011;26687;48.254;11.454;2023-10-09T09:32:00;12.18;;;2.97;;
40955;SDS011;26687;48.254;11.454;2023-10-09T09:35:15;13.93;;;3.58;;
40955;SDS011;26687;48.254;11.454;2023-10-09T09:38:19;10.18;;;2.50;;
40955;SDS011;26687;48.254;11.454;2023-10-09T09:41:22;9.07;;;2.85;;
40955;SDS011;26687;48.254;11.454;2023-10-09T09:44:26;11.00;;;3.05;;
40955;SDS011;26687;48.254;11.454;2023-10-09T09:47:30;13.48;;;3.38;;
40955;SDS011;26687;48.254;11.454;2023-10-09T09:50:35;13.63;;;3.17;;
40955;SDS011;26687;48.254;11.454;2023-10-09T09:53:43;16.77;;;2.83;;
40955;SDS011;26687;48.254;11.454;2023-10-09T09:56:49;15.30;;;3.03;;
40955;SDS011;26687;48.254;11.454;2023-10-09T09:59:52;10.70;;;2.97;;
40955;SDS011;26687;48.254;11.454;2023-10-09T10:03:07;11.60;;;3.40;;
40955;SDS011;26687;48.254;11.454;2023-10-09T10:12:48;8.80;;;2.80;;
40955;SDS011;26687;48.254;11.454;2023-10-09T10:16:05;11.95;;;2.90;;
40955;SDS011;26687;48.254;11.454;2023-10-09T10:19:20;16.92;;;2.85;;
40955;SDS011;26687;48.254;11.454;2023-10-09T10:22:23;10.23;;;3.20;;
40955;SDS011;26687;48.254;11.454;2023-10-09T10:25:31;13.25;;;3.25;;
40955;SDS011;26687;48.254;11.454;2023-10-09T10:28:32;12.90;;;2.45;;
40955;SDS011;26687;48.254;11.454;2023-10-09T10:34:56;13.57;;;3.03;;
40955;SDS011;26687;48.254;11.454;2023-10-09T10:37:57;15.67;;;3.03;;
40955;SDS011;26687;48.254;11.454;2023-10-09T10:41:12;11.07;;;3.15;;
40955;SDS011;26687;48.254;11.454;2023-10-09T10:44:12;12.77;;;3.00;;
40955;SDS011;26687;48.254;11.454;2023-10-09T10:47:31;8.38;;;2.85;;
40955;SDS011;26687;48.254;11.454;2023-10-09T10:50:35;9.95;;;2.75;;
40955;SDS011;26687;48.254;11.454;2023-10-09T10:53:36;10.38;;;3.00;;
40955;SDS011;26687;48.254;11.454;2023-10-09T10:56:47;16.10;;;3.17;;
40955;SDS011;26687;48.254;11.454;2023-10-09T10:59:51;10.85;;;3.10;;
40955;SDS011;26687;48.254;11.454;2023-10-09T11:03:03;12.18;;;3.22;;
40955;SDS011;26687;48.254;11.454;2023-10-09T11:06:25;11.40;;;3.03;;
40955;SDS011;26687;48.254;11.454;2023-10-09T11:09:48;16.95;;;3.42;;
40955;SDS011;26687;48.254;11.454;2023-10-09T11:13:06;12.25;;;3.13;;
40955;SDS011;26687;48.254;11.454;2023-10-09T11:19:21;9.40;;;3.35;;
40955;SDS011;26687;48.254;11.454;2023-10-09T11:22:28;14.23;;;3.10;;
40955;SDS011;26687;48.254;11.454;2023-10-09T11:25:28;18.23;;;3.25;;
40955;SDS011;26687;48.254;11.454;2023-10-09T11:28:30;12.00;;;3.50;;
40955;SDS011;26687;48.254;11.454;2023-10-09T11:31:56;10.05;;;3.03;;
40955;SDS011;26687;48.254;11.454;2023-10-09T11:35:10;16.70;;;3.28;;
40955;SDS011;26687;48.254;11.454;2023-10-09T11:38:11;16.02;;;3.53;;
40955;SDS011;26687;48.254;11.454;2023-10-09T11:41:24;14.20;;;3.33;;
40955;SDS011;26687;48.254;11.454;2023-10-09T11:44:39;17.23;;;3.85;;
40955;SDS011;26687;48.254;11.454;2023-10-09T11:50:54;19.13;;;3.80;;
40955;SDS011;26687;48.254;11.454;2023-10-09T11:54:28;12.82;;;3.50;;
40955;SDS011;26687;48.254;11.454;2023-10-09T11:57:29;15.15;;;3.22;;
40955;SDS011;26687;48.254;11.454;2023-10-09T12:00:33;12.13;;;3.58;;
40955;SDS011;26687;48.254;11.454;2023-10-09T12:03:44;13.00;;;2.90;;
40955;SDS011;26687;48.254;11.454;2023-10-09T12:06:49;13.90;;;3.15;;
40955;SDS011;26687;48.254;11.454;2023-10-09T12:09:49;16.35;;;3.97;;
40955;SDS011;26687;48.254;11.454;2023-10-09T12:12:54;13.55;;;3.35;;
40955;SDS011;26687;48.254;11.454;2023-10-09T12:15:58;15.50;;;3.58;;
40955;SDS011;26687;48.254;11.454;2023-10-09T12:18:58;13.83;;;3.97;;
40955;SDS011;26687;48.254;11.454;2023-10-09T12:21:59;14.73;;;3.45;;
40955;SDS011;26687;48.254;11.454;2023-10-09T12:25:04;9.68;;;2.95;;
40955;SDS011;26687;48.254;11.454;2023-10-09T12:28:09;16.70;;;3.75;;
40955;SDS011;26687;48.254;11.454;2023-10-09T12:31:15;13.85;;;3.95;;
40955;SDS011;26687;48.254;11.454;2023-10-09T12:34:15;16.10;;;3.55;;
40955;SDS011;26687;48.254;11.454;2023-10-09T12:37:16;12.73;;;4.22;;
40955;SDS011;26687;48.254;11.454;2023-10-09T12:40:17;18.98;;;4.22;;
40955;SDS011;26687;48.254;11.454;2023-10-09T12:43:24;13.40;;;3.72;;
40955;SDS011;26687;48.254;11.454;2023-10-09T12:46:26;13.52;;;3.80;;
40955;SDS011;26687;48.254;11.454;2023-10-09T12:49:26;19.13;;;4.25;;
40955;SDS011;26687;48.254;11.454;2023-10-09T12:52:27;17.67;;;3.93;;
40955;SDS011;26687;48.254;11.454;2023-10-09T12:55:29;18.33;;;3.75;;
40955;SDS011;26687;48.254;11.454;2023-10-09T13:01:37;18.23;;;3.50;;
40955;SDS011;26687;48.254;11.454;2023-10-09T13:04:43;15.07;;;4.03;;
40955;SDS011;26687;48.254;11.454;2023-10-09T13:07:43;16.65;;;3.90;;
40955;SDS011;26687;48.254;11.454;2023-10-09T13:10:46;12.30;;;4.00;;
40955;SDS011;26687;48.254;11.454;2023-10-09T13:13:46;13.03;;;4.03;;
40955;SDS011;26687;48.254;11.454;2023-10-09T13:16:52;11.10;;;3.92;;
40955;SDS011;26687;48.254;11.454;2023-10-09T13:19:53;20.35;;;4.15;;
40955;SDS011;26687;48.254;11.454;2023-10-09T13:22:54;10.95;;;3.72;;
40955;SDS011;26687;48.254;11.454;2023-10-09T13:25:57;17.40;;;4.18;;
40955;SDS011;26687;48.254;11.454;2023-10-09T13:28:57;12.10;;;3.50;;
40955;SDS011;26687;48.254;11.454;2023-10-09T13:31:58;12.93;;;3.55;;
40955;SDS011;26687;48.254;11.454;2023-10-09T13:35:02;20.98;;;3.85;;
40955;SDS011;26687;48.254;11.454;2023-10-09T13:38:03;13.18;;;3.63;;
40955;SDS011;26687;48.254;11.454;2023-10-09T13:41:08;11.02;;;3.17;;
40955;SDS011;26687;48.254;11.454;2023-10-09T13:44:12;11.80;;;2.83;;
40955;SDS011;26687;48.254;11.454;2023-10-09T13:47:12;17.52;;;4.00;;
40955;SDS011;26687;48.254;11.454;2023-10-09T13:50:19;14.07;;;3.70;;
40955;SDS011;26687;48.254;11.454;2023-10-09T13:53:21;16.80;;;3.80;;
40955;SDS011;26687;48.254;11.454;2023-10-09T13:56:24;16.77;;;4.68;;
40955;SDS011;26687;48.254;11.454;2023-10-09T13:59:27;14.30;;;4.18;;
40955;SDS011;26687;48.254;11.454;2023-10-09T14:02:27;14.63;;;3.37;;
40955;SDS011;26687;48.254;11.454;2023-10-09T14:05:28;9.85;;;3.10;;
40955;SDS011;26687;48.254;11.454;2023-10-09T14:08:28;9.45;;;2.83;;
40955;SDS011;26687;48.254;11.454;2023-10-09T14:11:29;13.27;;;3.33;;
40955;SDS011;26687;48.254;11.454;2023-10-09T14:14:29;12.80;;;3.33;;
40955;SDS011;26687;48.254;11.454;2023-10-09T14:17:31;9.82;;;3.33;;
40955;SDS011;26687;48.254;11.454;2023-10-09T14:20:31;11.47;;;3.97;;
40955;SDS011;26687;48.254;11.454;2023-10-09T14:23:34;15.40;;;3.60;;
40955;SDS011;26687;48.254;11.454;2023-10-09T14:26:34;10.10;;;3.70;;
40955;SDS011;26687;48.254;11.454;2023-10-09T14:29:34;16.77;;;4.00;;
40955;SDS011;26687;48.254;11.454;2023-10-09T14:32:37;8.55;;;3.08;;
40955;SDS011;26687;48.254;11.454;2023-10-09T14:35:44;11.95;;;3.72;;
40955;SDS011;26687;48.254;11.454;2023-10-09T14:38:45;14.85;;;4.18;;
40955;SDS011;26687;48.254;11.454;2023-10-09T14:41:46;13.68;;;4.03;;
40955;SDS011;26687;48.254;11.454;2023-10-09T14:44:47;15.55;;;3.88;;
40955;SDS011;26687;48.254;11.454;2023-10-09T14:47:47;16.30;;;5.32;;
40955;SDS011;26687;48.254;11.454;2023-10-09T14:50:48;12.98;;;4.57;;
40955;SDS011;26687;48.254;11.454;2023-10-09T14:53:49;14.63;;;3.83;;
40955;SDS011;26687;48.254;11.454;2023-10-09T14:56:49;13.50;;;4.28;;
40955;SDS011;26687;48.254;11.454;2023-10-09T14:59:50;14.80;;;4.10;;
40955;SDS011;26687;48.254;11.454;2023-10-09T15:02:51;11.75;;;3.63;;
40955;SDS011;26687;48.254;11.454;2023-10-09T15:05:52;16.10;;;4.57;;
40955;SDS011;26687;48.254;11.454;2023-10-09T15:08:52;11.80;;;3.50;;
40955;SDS011;26687;48.254;11.454;2023-10-09T15:11:53;19.90;;;4.10;;
40955;SDS011;26687;48.254;11.454;2023-10-09T15:14:53;16.13;;;4.25;;
40955;SDS011;26687;48.254;11.454;2023-10-09T15:17:56;13.23;;;4.43;;
40955;SDS011;26687;48.254;11.454;2023-10-09T15:20:56;10.85;;;3.80;;
40955;SDS011;26687;48.254;11.454;2023-10-09T15:23:58;17.17;;;4.10;;
40955;SDS011;26687;48.254;11.454;2023-10-09T15:26:58;11.38;;;4.18;;
40955;SDS011;26687;48.254;11.454;2023-10-09T15:29:58;13.80;;;4.10;;
40955;SDS011;26687;48.254;11.454;2023-10-09T15:32:58;10.80;;;4.03;;
40955;SDS011;26687;48.254;11.454;2023-10-09T15:35:59;13.40;;;4.20;;
40955;SDS011;26687;48.254;11.454;2023-10-09T15:38:59;12.30;;;3.83;;
40955;SDS011;26687;48.254;11.454;2023-10-09T15:41:59;12.83;;;4.87;;
40955;SDS011;26687;48.254;11.454;2023-10-09T15:44:59;11.33;;;4.70;;
40955;SDS011;26687;48.254;11.454;2023-10-09T15:48:00;13.45;;;4.43;;
40955;SDS011;26687;48.254;11.454;2023-10-09T15:51:08;12.82;;;4.30;;
40955;SDS011;26687;48.254;11.454;2023-10-09T15:54:09;14.85;;;4.75;;
40955;SDS011;26687;48.254;11.454;2023-10-09T15:57:11;15.17;;;4.00;;
40955;SDS011;26687;48.254;11.454;2023-10-09T16:00:11;20.23;;;4.97;;
40955;SDS011;26687;48.254;11.454;2023-10-09T16:03:17;14.77;;;4.25;;
40955;SDS011;26687;48.254;11.454;2023-10-09T16:06:18;11.63;;;4.27;;
40955;SDS011;26687;48.254;11.454;2023-10-09T16:09:18;11.90;;;5.10;;
40955;SDS011;26687;48.254;11.454;2023-10-09T16:12:21;17.30;;;4.85;;
40955;SDS011;26687;48.254;11.454;2023-10-09T16:15:23;16.40;;;4.50;;
40955;SDS011;26687;48.254;11.454;2023-10-09T16:18:25;13.38;;;4.80;;
40955;SDS011;26687;48.254;11.454;2023-10-09T16:21:26;12.35;;;4.05;;
40955;SDS011;26687;48.254;11.454;2023-10-09T16:24:27;10.67;;;4.33;;
40955;SDS011;26687;48.254;11.454;2023-10-09T16:27:29;14.30;;;4.97;;
40955;SDS011;26687;48.254;11.454;2023-10-09T16:30:31;13.48;;;5.05;;
40955;SDS011;26687;48.254;11.454;2023-10-09T16:33:31;14.03;;;5.20;;
40955;SDS011;26687;48.254;11.454;2023-10-09T16:36:31;16.02;;;5.60;;
40955;SDS011;26687;48.254;11.454;2023-10-09T16:39:32;16.83;;;5.63;;
40955;SDS011;26687;48.254;11.454;2023-10-09T16:42:38;17.35;;;5.05;;
40955;SDS011;26687;48.254;11.454;2023-10-09T16:45:40;13.88;;;4.50;;
40955;SDS011;26687;48.254;11.454;2023-10-09T16:48:43;16.10;;;4.50;;
40955;SDS011;26687;48.254;11.454;2023-10-09T16:51:46;16.02;;;4.40;;
40955;SDS011;26687;48.254;11.454;2023-10-09T16:54:46;15.85;;;4.38;;
40955;SDS011;26687;48.254;11.454;2023-10-09T16:57:46;14.75;;;4.32;;
40955;SDS011;26687;48.254;11.454;2023-10-09T17:00:46;13.50;;;4.05;;
40955;SDS011;26687;48.254;11.454;2023-10-09T17:03:47;13.38;;;4.25;;
40955;SDS011;26687;48.254;11.454;2023-10-09T17:06:54;13.45;;;4.43;;
40955;SDS011;26687;48.254;11.454;2023-10-09T17:09:58;16.42;;;5.18;;
40955;SDS011;26687;48.254;11.454;2023-10-09T17:12:58;14.50;;;5.10;;
40955;SDS011;26687;48.254;11.454;2023-10-09T17:16:00;13.73;;;5.40;;
40955;SDS011;26687;48.254;11.454;2023-10-09T17:19:02;16.70;;;6.30;;
40955;SDS011;26687;48.254;11.454;2023-10-09T17:22:05;15.07;;;7.68;;
40955;SDS011;26687;48.254;11.454;2023-10-09T17:25:12;17.27;;;8.40;;
40955;SDS011;26687;48.254;11.454;2023-10-09T17:28:12;14.95;;;6.55;;
40955;SDS011;26687;48.254;11.454;2023-10-09T17:31:18;10.32;;;5.43;;
40955;SDS011;26687;48.254;11.454;2023-10-09T17:34:20;16.83;;;5.38;;
40955;SDS011;26687;48.254;11.454;2023-10-09T17:37:23;13.60;;;5.53;;
40955;SDS011;26687;48.254;11.454;2023-10-09T17:40:23;15.68;;;4.40;;
40955;SDS011;26687;48.254;11.454;2023-10-09T17:43:26;11.23;;;4.10;;
40955;SDS011;26687;48.254;11.454;2023-10-09T17:46:26;10.43;;;4.20;;
40955;SDS011;26687;48.254;11.454;2023-10-09T17:49:26;15.88;;;4.40;;
40955;SDS011;26687;48.254;11.454;2023-10-09T17:52:26;17.40;;;4.30;;
40955;SDS011;26687;48.254;11.454;2023-10-09T17:55:26;14.45;;;3.75;;
40955;SDS011;26687;48.254;11.454;2023-10-09T17:58:27;14.35;;;3.55;;
40955;SDS011;26687;48.254;11.454;2023-10-09T18:01:28;12.68;;;3.40;;
40955;SDS011;26687;48.254;11.454;2023-10-09T18:04:29;13.75;;;4.05;;
40955;SDS011;26687;48.254;11.454;2023-10-09T18:07:35;12.10;;;3.78;;
40955;SDS011;26687;48.254;11.454;2023-10-09T18:10:35;11.05;;;4.75;;
40955;SDS011;26687;48.254;11.454;2023-10-09T18:13:40;11.23;;;4.03;;
40955;SDS011;26687;48.254;11.454;2023-10-09T18:16:40;7.57;;;3.97;;
40955;SDS011;26687;48.254;11.454;2023-10-09T18:19:41;11.32;;;3.85;;
40955;SDS011;26687;48.254;11.454;2023-10-09T18:22:43;9.77;;;3.72;;
40955;SDS011;26687;48.254;11.454;2023-10-09T18:25:46;11.70;;;3.60;;
40955;SDS011;26687;48.254;11.454;2023-10-09T18:28:49;8.90;;;3.25;;
40955;SDS011;26687;48.254;11.454;2023-10-09T18:31:49;10.15;;;4.10;;
40955;SDS011;26687;48.254;11.454;2023-10-09T18:34:50;10.23;;;3.55;;
40955;SDS011;26687;48.254;11.454;2023-10-09T18:37:50;12.70;;;3.75;;